Archival Weather

Chicago O'Hare International

Chicago, Illinois (KORD)

Report from: Thursday, April 13, 2023 4:51 PM CDT
Current time: Friday, February 23, 2024 1:30 PM CST

Current weather – Weather history – Daily summaries
Weather forecast

Temperature28.3°C (82.9°F)
Heat index27.0°C (80.6°F)
Dew point1.1°C (34.0°F)
Winds 11 kts (5.7 m/s, 12.7 mph) South-Southwest (210°)
Wind gusts 17 kts (8.7 m/s, 19.6 mph)
Visibility10 mi. (16.1 km)
Clouds Scattered clouds 30,000 ft. (9,144 m)
Altimeter29.78 in.Hg (1008 mB)
Relative humidity17 %
Density altitude1,813 ft. (553 m)
Sea-level pressure100.8 kPa (1008 mB, 29.76 in.Hg)
Remarks Automated weather observing station with precipitation discriminator
Flight conditions Visual Meteorological Conditions
Raw dataKORD 132151Z 21011G17KT 10SM SCT300 28/01 A2978 RMK AO2 SLP079 T02830011
An error has occurred. This application may no longer respond until reloaded. Reload 🗙